sensor_id;sensor_type;location;lat;lon;timestamp;P1;durP1;ratioP1;P2;durP2;ratioP2
6828;SDS011;17930;48.592;8.868;2022-11-14T00:02:07;11.98;;;7.13;;
6828;SDS011;17930;48.592;8.868;2022-11-14T00:04:34;13.00;;;7.53;;
6828;SDS011;17930;48.592;8.868;2022-11-14T00:07:01;10.40;;;6.37;;
6828;SDS011;17930;48.592;8.868;2022-11-14T00:09:28;10.60;;;6.53;;
6828;SDS011;17930;48.592;8.868;2022-11-14T00:11:56;12.10;;;6.47;;
6828;SDS011;17930;48.592;8.868;2022-11-14T00:14:23;10.15;;;5.78;;
6828;SDS011;17930;48.592;8.868;2022-11-14T00:16:50;11.27;;;6.35;;
6828;SDS011;17930;48.592;8.868;2022-11-14T00:19:17;13.77;;;7.22;;
6828;SDS011;17930;48.592;8.868;2022-11-14T00:21:44;12.43;;;7.00;;
6828;SDS011;17930;48.592;8.868;2022-11-14T00:24:11;11.43;;;6.78;;
6828;SDS011;17930;48.592;8.868;2022-11-14T00:26:37;11.07;;;7.00;;
6828;SDS011;17930;48.592;8.868;2022-11-14T00:29:06;13.40;;;7.35;;
6828;SDS011;17930;48.592;8.868;2022-11-14T00:31:36;10.90;;;6.50;;
6828;SDS011;17930;48.592;8.868;2022-11-14T00:34:03;11.93;;;7.00;;
6828;SDS011;17930;48.592;8.868;2022-11-14T00:36:30;11.75;;;6.70;;
6828;SDS011;17930;48.592;8.868;2022-11-14T00:38:57;11.38;;;6.85;;
6828;SDS011;17930;48.592;8.868;2022-11-14T00:41:24;10.23;;;6.15;;
6828;SDS011;17930;48.592;8.868;2022-11-14T00:43:51;12.95;;;7.13;;
6828;SDS011;17930;48.592;8.868;2022-11-14T00:46:20;9.63;;;6.22;;
6828;SDS011;17930;48.592;8.868;2022-11-14T00:48:47;11.13;;;6.30;;
6828;SDS011;17930;48.592;8.868;2022-11-14T00:51:15;10.05;;;6.43;;
6828;SDS011;17930;48.592;8.868;2022-11-14T00:53:42;11.80;;;6.07;;
6828;SDS011;17930;48.592;8.868;2022-11-14T00:56:09;10.73;;;7.20;;
6828;SDS011;17930;48.592;8.868;2022-11-14T00:58:36;11.17;;;6.93;;
6828;SDS011;17930;48.592;8.868;2022-11-14T01:01:06;11.30;;;6.65;;
6828;SDS011;17930;48.592;8.868;2022-11-14T01:03:35;12.48;;;7.53;;
6828;SDS011;17930;48.592;8.868;2022-11-14T01:06:03;10.80;;;6.63;;
6828;SDS011;17930;48.592;8.868;2022-11-14T01:08:31;12.57;;;6.97;;
6828;SDS011;17930;48.592;8.868;2022-11-14T01:10:59;12.05;;;6.82;;
6828;SDS011;17930;48.592;8.868;2022-11-14T01:13:29;9.63;;;6.35;;
6828;SDS011;17930;48.592;8.868;2022-11-14T01:15:59;11.40;;;6.73;;
6828;SDS011;17930;48.592;8.868;2022-11-14T01:18:27;12.38;;;7.18;;
6828;SDS011;17930;48.592;8.868;2022-11-14T01:20:55;10.73;;;6.40;;
6828;SDS011;17930;48.592;8.868;2022-11-14T01:23:22;11.20;;;6.63;;
6828;SDS011;17930;48.592;8.868;2022-11-14T01:25:49;10.82;;;6.72;;
6828;SDS011;17930;48.592;8.868;2022-11-14T01:28:17;11.63;;;6.47;;
6828;SDS011;17930;48.592;8.868;2022-11-14T01:30:45;11.63;;;7.03;;
6828;SDS011;17930;48.592;8.868;2022-11-14T01:33:13;11.40;;;6.55;;
6828;SDS011;17930;48.592;8.868;2022-11-14T01:35:40;9.90;;;5.97;;
6828;SDS011;17930;48.592;8.868;2022-11-14T01:38:11;9.70;;;6.53;;
6828;SDS011;17930;48.592;8.868;2022-11-14T01:40:42;11.88;;;6.75;;
6828;SDS011;17930;48.592;8.868;2022-11-14T01:43:25;12.27;;;7.03;;
6828;SDS011;17930;48.592;8.868;2022-11-14T01:45:55;10.95;;;6.45;;
6828;SDS011;17930;48.592;8.868;2022-11-14T01:48:24;11.73;;;7.13;;
6828;SDS011;17930;48.592;8.868;2022-11-14T01:50:56;12.75;;;7.20;;
6828;SDS011;17930;48.592;8.868;2022-11-14T01:53:28;12.50;;;6.60;;
6828;SDS011;17930;48.592;8.868;2022-11-14T01:55:57;11.38;;;6.88;;
6828;SDS011;17930;48.592;8.868;2022-11-14T01:58:26;10.90;;;6.78;;
6828;SDS011;17930;48.592;8.868;2022-11-14T02:00:55;11.18;;;6.80;;
6828;SDS011;17930;48.592;8.868;2022-11-14T02:03:24;11.80;;;6.85;;
6828;SDS011;17930;48.592;8.868;2022-11-14T02:05:51;12.23;;;7.05;;
6828;SDS011;17930;48.592;8.868;2022-11-14T02:08:20;11.88;;;6.80;;
6828;SDS011;17930;48.592;8.868;2022-11-14T02:10:49;11.30;;;6.97;;
6828;SDS011;17930;48.592;8.868;2022-11-14T02:13:33;11.07;;;6.80;;
6828;SDS011;17930;48.592;8.868;2022-11-14T02:16:04;11.45;;;6.88;;
6828;SDS011;17930;48.592;8.868;2022-11-14T02:18:32;10.63;;;6.80;;
6828;SDS011;17930;48.592;8.868;2022-11-14T02:23:48;10.52;;;6.35;;
6828;SDS011;17930;48.592;8.868;2022-11-14T02:26:16;12.50;;;6.53;;
6828;SDS011;17930;48.592;8.868;2022-11-14T02:28:53;12.13;;;7.10;;
6828;SDS011;17930;48.592;8.868;2022-11-14T02:31:22;10.02;;;6.47;;
6828;SDS011;17930;48.592;8.868;2022-11-14T02:33:52;12.98;;;7.03;;
6828;SDS011;17930;48.592;8.868;2022-11-14T02:36:20;12.55;;;7.70;;
6828;SDS011;17930;48.592;8.868;2022-11-14T02:38:47;11.52;;;7.25;;
6828;SDS011;17930;48.592;8.868;2022-11-14T02:41:14;10.57;;;6.63;;
6828;SDS011;17930;48.592;8.868;2022-11-14T02:43:41;12.48;;;6.63;;
6828;SDS011;17930;48.592;8.868;2022-11-14T02:46:17;13.30;;;7.32;;
6828;SDS011;17930;48.592;8.868;2022-11-14T02:48:43;13.02;;;7.72;;
6828;SDS011;17930;48.592;8.868;2022-11-14T02:51:10;13.05;;;7.05;;
6828;SDS011;17930;48.592;8.868;2022-11-14T02:53:38;13.73;;;6.97;;
6828;SDS011;17930;48.592;8.868;2022-11-14T02:56:05;11.43;;;7.13;;
6828;SDS011;17930;48.592;8.868;2022-11-14T02:58:32;11.68;;;6.75;;
6828;SDS011;17930;48.592;8.868;2022-11-14T03:00:59;11.60;;;7.30;;
6828;SDS011;17930;48.592;8.868;2022-11-14T03:03:26;10.85;;;6.60;;
6828;SDS011;17930;48.592;8.868;2022-11-14T03:05:57;13.27;;;7.45;;
6828;SDS011;17930;48.592;8.868;2022-11-14T03:08:24;9.65;;;6.15;;
6828;SDS011;17930;48.592;8.868;2022-11-14T03:10:52;12.38;;;7.15;;
6828;SDS011;17930;48.592;8.868;2022-11-14T03:13:19;14.50;;;7.38;;
6828;SDS011;17930;48.592;8.868;2022-11-14T03:15:46;12.30;;;7.90;;
6828;SDS011;17930;48.592;8.868;2022-11-14T03:18:12;14.35;;;7.57;;
6828;SDS011;17930;48.592;8.868;2022-11-14T03:20:39;13.88;;;7.82;;
6828;SDS011;17930;48.592;8.868;2022-11-14T03:23:06;15.20;;;7.35;;
6828;SDS011;17930;48.592;8.868;2022-11-14T03:25:33;15.50;;;7.32;;
6828;SDS011;17930;48.592;8.868;2022-11-14T03:28:04;14.27;;;7.20;;
6828;SDS011;17930;48.592;8.868;2022-11-14T03:30:31;24.90;;;8.32;;
6828;SDS011;17930;48.592;8.868;2022-11-14T03:32:58;16.65;;;8.13;;
6828;SDS011;17930;48.592;8.868;2022-11-14T03:35:25;18.00;;;8.57;;
6828;SDS011;17930;48.592;8.868;2022-11-14T03:37:52;16.08;;;8.77;;
6828;SDS011;17930;48.592;8.868;2022-11-14T03:40:19;15.95;;;8.48;;
6828;SDS011;17930;48.592;8.868;2022-11-14T03:42:45;28.25;;;8.48;;
6828;SDS011;17930;48.592;8.868;2022-11-14T03:45:14;28.17;;;8.32;;
6828;SDS011;17930;48.592;8.868;2022-11-14T03:47:40;31.95;;;9.43;;
6828;SDS011;17930;48.592;8.868;2022-11-14T03:50:07;30.52;;;8.60;;
6828;SDS011;17930;48.592;8.868;2022-11-14T03:52:37;16.65;;;8.50;;
6828;SDS011;17930;48.592;8.868;2022-11-14T03:55:05;33.03;;;8.98;;
6828;SDS011;17930;48.592;8.868;2022-11-14T03:57:32;23.05;;;8.02;;
6828;SDS011;17930;48.592;8.868;2022-11-14T03:59:59;52.45;;;8.98;;
6828;SDS011;17930;48.592;8.868;2022-11-14T04:02:27;23.10;;;8.15;;
6828;SDS011;17930;48.592;8.868;2022-11-14T04:04:53;31.67;;;9.77;;
6828;SDS011;17930;48.592;8.868;2022-11-14T04:07:20;32.17;;;8.65;;
6828;SDS011;17930;48.592;8.868;2022-11-14T04:09:47;27.58;;;8.85;;
6828;SDS011;17930;48.592;8.868;2022-11-14T04:12:14;18.65;;;7.68;;
6828;SDS011;17930;48.592;8.868;2022-11-14T04:14:41;28.25;;;7.57;;
6828;SDS011;17930;48.592;8.868;2022-11-14T04:17:07;43.92;;;9.52;;
6828;SDS011;17930;48.592;8.868;2022-11-14T04:19:36;23.70;;;8.43;;
6828;SDS011;17930;48.592;8.868;2022-11-14T04:22:02;22.85;;;8.40;;
6828;SDS011;17930;48.592;8.868;2022-11-14T04:24:30;31.25;;;8.95;;
6828;SDS011;17930;48.592;8.868;2022-11-14T04:26:57;19.73;;;8.60;;
6828;SDS011;17930;48.592;8.868;2022-11-14T04:29:24;21.65;;;8.30;;
6828;SDS011;17930;48.592;8.868;2022-11-14T04:31:59;27.25;;;9.00;;
6828;SDS011;17930;48.592;8.868;2022-11-14T04:34:26;44.80;;;9.43;;
6828;SDS011;17930;48.592;8.868;2022-11-14T04:36:55;20.88;;;8.88;;
6828;SDS011;17930;48.592;8.868;2022-11-14T04:39:21;29.05;;;9.05;;
6828;SDS011;17930;48.592;8.868;2022-11-14T04:41:48;18.95;;;9.15;;
6828;SDS011;17930;48.592;8.868;2022-11-14T04:44:15;20.95;;;9.10;;
6828;SDS011;17930;48.592;8.868;2022-11-14T04:46:42;16.95;;;9.25;;
6828;SDS011;17930;48.592;8.868;2022-11-14T04:49:09;22.55;;;9.68;;
6828;SDS011;17930;48.592;8.868;2022-11-14T04:51:45;27.55;;;9.32;;
6828;SDS011;17930;48.592;8.868;2022-11-14T04:54:13;19.23;;;8.98;;
6828;SDS011;17930;48.592;8.868;2022-11-14T04:56:40;24.35;;;9.73;;
6828;SDS011;17930;48.592;8.868;2022-11-14T04:59:06;20.60;;;8.63;;
6828;SDS011;17930;48.592;8.868;2022-11-14T05:01:33;18.67;;;8.90;;
6828;SDS011;17930;48.592;8.868;2022-11-14T05:04:00;17.27;;;8.85;;
6828;SDS011;17930;48.592;8.868;2022-11-14T05:06:27;24.63;;;9.85;;
6828;SDS011;17930;48.592;8.868;2022-11-14T05:08:54;19.60;;;9.60;;
6828;SDS011;17930;48.592;8.868;2022-11-14T05:11:22;24.30;;;9.73;;
6828;SDS011;17930;48.592;8.868;2022-11-14T05:13:58;26.77;;;10.98;;
6828;SDS011;17930;48.592;8.868;2022-11-14T05:16:42;29.25;;;10.23;;
6828;SDS011;17930;48.592;8.868;2022-11-14T05:19:09;38.35;;;11.55;;
6828;SDS011;17930;48.592;8.868;2022-11-14T05:21:45;21.35;;;10.15;;
6828;SDS011;17930;48.592;8.868;2022-11-14T05:24:12;22.92;;;9.23;;
6828;SDS011;17930;48.592;8.868;2022-11-14T05:26:40;18.65;;;8.75;;
6828;SDS011;17930;48.592;8.868;2022-11-14T05:29:07;18.33;;;9.63;;
6828;SDS011;17930;48.592;8.868;2022-11-14T05:31:34;20.92;;;8.50;;
6828;SDS011;17930;48.592;8.868;2022-11-14T05:34:01;21.60;;;8.82;;
6828;SDS011;17930;48.592;8.868;2022-11-14T05:36:28;26.80;;;9.52;;
6828;SDS011;17930;48.592;8.868;2022-11-14T05:38:55;46.58;;;9.95;;
6828;SDS011;17930;48.592;8.868;2022-11-14T05:41:22;85.57;;;11.57;;
6828;SDS011;17930;48.592;8.868;2022-11-14T05:43:50;40.92;;;10.07;;
6828;SDS011;17930;48.592;8.868;2022-11-14T05:46:17;26.63;;;9.30;;
6828;SDS011;17930;48.592;8.868;2022-11-14T05:48:44;38.00;;;10.68;;
6828;SDS011;17930;48.592;8.868;2022-11-14T05:51:11;35.92;;;8.13;;
6828;SDS011;17930;48.592;8.868;2022-11-14T05:53:38;33.30;;;9.35;;
6828;SDS011;17930;48.592;8.868;2022-11-14T05:56:06;54.35;;;10.85;;
6828;SDS011;17930;48.592;8.868;2022-11-14T05:58:35;30.13;;;8.90;;
6828;SDS011;17930;48.592;8.868;2022-11-14T06:01:05;77.70;;;11.55;;
6828;SDS011;17930;48.592;8.868;2022-11-14T06:03:34;36.90;;;10.50;;
6828;SDS011;17930;48.592;8.868;2022-11-14T06:06:03;20.85;;;9.48;;
6828;SDS011;17930;48.592;8.868;2022-11-14T06:08:32;23.73;;;9.73;;
6828;SDS011;17930;48.592;8.868;2022-11-14T06:11:03;32.33;;;10.18;;
6828;SDS011;17930;48.592;8.868;2022-11-14T06:13:32;28.98;;;9.15;;
6828;SDS011;17930;48.592;8.868;2022-11-14T06:16:05;28.95;;;9.07;;
6828;SDS011;17930;48.592;8.868;2022-11-14T06:18:34;48.50;;;9.70;;
6828;SDS011;17930;48.592;8.868;2022-11-14T06:21:02;41.15;;;9.88;;
6828;SDS011;17930;48.592;8.868;2022-11-14T06:23:31;47.63;;;9.65;;
6828;SDS011;17930;48.592;8.868;2022-11-14T06:25:58;47.92;;;9.25;;
6828;SDS011;17930;48.592;8.868;2022-11-14T06:28:25;77.03;;;9.32;;
6828;SDS011;17930;48.592;8.868;2022-11-14T06:30:55;31.48;;;8.68;;
6828;SDS011;17930;48.592;8.868;2022-11-14T06:33:25;26.45;;;8.35;;
6828;SDS011;17930;48.592;8.868;2022-11-14T06:35:56;38.50;;;9.38;;
6828;SDS011;17930;48.592;8.868;2022-11-14T06:38:23;36.28;;;8.20;;
6828;SDS011;17930;48.592;8.868;2022-11-14T06:40:51;46.22;;;9.57;;
6828;SDS011;17930;48.592;8.868;2022-11-14T06:43:18;23.75;;;9.43;;
6828;SDS011;17930;48.592;8.868;2022-11-14T06:45:45;18.58;;;9.40;;
6828;SDS011;17930;48.592;8.868;2022-11-14T06:48:12;47.70;;;10.88;;
6828;SDS011;17930;48.592;8.868;2022-11-14T06:50:40;18.33;;;9.55;;
6828;SDS011;17930;48.592;8.868;2022-11-14T06:53:07;16.55;;;9.07;;
6828;SDS011;17930;48.592;8.868;2022-11-14T06:55:34;28.30;;;8.35;;
6828;SDS011;17930;48.592;8.868;2022-11-14T06:58:01;42.28;;;9.43;;
6828;SDS011;17930;48.592;8.868;2022-11-14T07:00:27;33.72;;;8.60;;
6828;SDS011;17930;48.592;8.868;2022-11-14T07:02:54;28.05;;;8.77;;
6828;SDS011;17930;48.592;8.868;2022-11-14T07:05:21;44.92;;;10.45;;
6828;SDS011;17930;48.592;8.868;2022-11-14T07:07:49;27.33;;;10.07;;
6828;SDS011;17930;48.592;8.868;2022-11-14T07:10:16;24.98;;;11.38;;
6828;SDS011;17930;48.592;8.868;2022-11-14T07:12:43;30.25;;;9.57;;
6828;SDS011;17930;48.592;8.868;2022-11-14T07:15:10;29.70;;;9.35;;
6828;SDS011;17930;48.592;8.868;2022-11-14T07:17:36;22.42;;;9.85;;
6828;SDS011;17930;48.592;8.868;2022-11-14T07:20:04;24.77;;;10.02;;
6828;SDS011;17930;48.592;8.868;2022-11-14T07:22:31;25.73;;;12.00;;
6828;SDS011;17930;48.592;8.868;2022-11-14T07:24:59;26.48;;;11.73;;
6828;SDS011;17930;48.592;8.868;2022-11-14T07:27:26;23.48;;;12.25;;
6828;SDS011;17930;48.592;8.868;2022-11-14T07:29:53;21.67;;;11.60;;
6828;SDS011;17930;48.592;8.868;2022-11-14T07:32:20;24.77;;;12.15;;
6828;SDS011;17930;48.592;8.868;2022-11-14T07:34:47;21.60;;;11.48;;
6828;SDS011;17930;48.592;8.868;2022-11-14T07:37:14;23.58;;;11.90;;
6828;SDS011;17930;48.592;8.868;2022-11-14T07:39:40;26.00;;;11.75;;
6828;SDS011;17930;48.592;8.868;2022-11-14T07:42:08;21.90;;;11.35;;
6828;SDS011;17930;48.592;8.868;2022-11-14T07:44:35;31.90;;;15.50;;
6828;SDS011;17930;48.592;8.868;2022-11-14T07:47:02;35.28;;;17.02;;
6828;SDS011;17930;48.592;8.868;2022-11-14T07:49:28;22.50;;;10.25;;
6828;SDS011;17930;48.592;8.868;2022-11-14T07:51:55;17.98;;;9.40;;
6828;SDS011;17930;48.592;8.868;2022-11-14T07:54:22;18.27;;;9.05;;
6828;SDS011;17930;48.592;8.868;2022-11-14T07:56:49;19.13;;;9.48;;
6828;SDS011;17930;48.592;8.868;2022-11-14T07:59:17;21.15;;;11.23;;
6828;SDS011;17930;48.592;8.868;2022-11-14T08:01:43;20.88;;;10.98;;
6828;SDS011;17930;48.592;8.868;2022-11-14T08:04:10;22.08;;;11.25;;
6828;SDS011;17930;48.592;8.868;2022-11-14T08:06:37;20.50;;;11.48;;
6828;SDS011;17930;48.592;8.868;2022-11-14T08:09:04;18.15;;;9.68;;
6828;SDS011;17930;48.592;8.868;2022-11-14T08:11:30;16.73;;;9.43;;
6828;SDS011;17930;48.592;8.868;2022-11-14T08:14:17;20.63;;;11.15;;
6828;SDS011;17930;48.592;8.868;2022-11-14T08:16:44;20.48;;;10.45;;
6828;SDS011;17930;48.592;8.868;2022-11-14T08:19:11;26.20;;;10.07;;
6828;SDS011;17930;48.592;8.868;2022-11-14T08:21:38;19.55;;;10.82;;
6828;SDS011;17930;48.592;8.868;2022-11-14T08:24:05;22.33;;;10.65;;
6828;SDS011;17930;48.592;8.868;2022-11-14T08:26:33;16.90;;;9.70;;
6828;SDS011;17930;48.592;8.868;2022-11-14T08:29:00;18.58;;;10.40;;
6828;SDS011;17930;48.592;8.868;2022-11-14T08:31:28;21.55;;;9.85;;
6828;SDS011;17930;48.592;8.868;2022-11-14T08:33:56;18.02;;;9.80;;
6828;SDS011;17930;48.592;8.868;2022-11-14T08:36:22;20.23;;;9.88;;
6828;SDS011;17930;48.592;8.868;2022-11-14T08:38:49;17.35;;;9.75;;
6828;SDS011;17930;48.592;8.868;2022-11-14T08:41:16;16.63;;;10.10;;
6828;SDS011;17930;48.592;8.868;2022-11-14T08:43:43;15.02;;;9.15;;
6828;SDS011;17930;48.592;8.868;2022-11-14T08:46:26;17.90;;;9.48;;
6828;SDS011;17930;48.592;8.868;2022-11-14T08:48:54;19.23;;;9.48;;
6828;SDS011;17930;48.592;8.868;2022-11-14T08:51:21;16.42;;;9.52;;
6828;SDS011;17930;48.592;8.868;2022-11-14T08:53:48;14.07;;;8.48;;
6828;SDS011;17930;48.592;8.868;2022-11-14T08:56:16;19.42;;;9.73;;
6828;SDS011;17930;48.592;8.868;2022-11-14T08:58:43;15.20;;;9.07;;
6828;SDS011;17930;48.592;8.868;2022-11-14T09:01:13;13.82;;;8.68;;
6828;SDS011;17930;48.592;8.868;2022-11-14T09:03:40;14.95;;;8.48;;
6828;SDS011;17930;48.592;8.868;2022-11-14T09:06:08;18.77;;;9.53;;
6828;SDS011;17930;48.592;8.868;2022-11-14T09:08:35;16.08;;;9.68;;
6828;SDS011;17930;48.592;8.868;2022-11-14T09:11:03;32.88;;;16.67;;
6828;SDS011;17930;48.592;8.868;2022-11-14T09:13:31;25.23;;;13.32;;
6828;SDS011;17930;48.592;8.868;2022-11-14T09:15:58;22.67;;;10.82;;
6828;SDS011;17930;48.592;8.868;2022-11-14T09:18:25;16.85;;;9.68;;
6828;SDS011;17930;48.592;8.868;2022-11-14T09:20:52;17.77;;;8.35;;
6828;SDS011;17930;48.592;8.868;2022-11-14T09:23:20;13.75;;;8.30;;
6828;SDS011;17930;48.592;8.868;2022-11-14T09:25:47;16.03;;;8.40;;
6828;SDS011;17930;48.592;8.868;2022-11-14T09:28:13;15.27;;;8.77;;
6828;SDS011;17930;48.592;8.868;2022-11-14T09:30:40;20.63;;;8.70;;
6828;SDS011;17930;48.592;8.868;2022-11-14T09:33:07;19.50;;;7.82;;
6828;SDS011;17930;48.592;8.868;2022-11-14T09:35:34;14.77;;;7.67;;
6828;SDS011;17930;48.592;8.868;2022-11-14T09:38:03;12.23;;;7.60;;
6828;SDS011;17930;48.592;8.868;2022-11-14T09:40:38;15.23;;;8.17;;
6828;SDS011;17930;48.592;8.868;2022-11-14T09:43:23;16.43;;;8.40;;
6828;SDS011;17930;48.592;8.868;2022-11-14T09:45:59;13.50;;;9.57;;
6828;SDS011;17930;48.592;8.868;2022-11-14T09:48:28;11.43;;;7.57;;
6828;SDS011;17930;48.592;8.868;2022-11-14T09:51:02;16.00;;;8.90;;
6828;SDS011;17930;48.592;8.868;2022-11-14T09:53:33;17.20;;;8.60;;
6828;SDS011;17930;48.592;8.868;2022-11-14T09:56:08;15.17;;;8.20;;
6828;SDS011;17930;48.592;8.868;2022-11-14T09:58:38;11.07;;;6.90;;
6828;SDS011;17930;48.592;8.868;2022-11-14T10:01:07;11.87;;;7.27;;
6828;SDS011;17930;48.592;8.868;2022-11-14T10:03:41;14.30;;;8.77;;
6828;SDS011;17930;48.592;8.868;2022-11-14T10:06:19;14.97;;;7.73;;
6828;SDS011;17930;48.592;8.868;2022-11-14T10:08:59;13.30;;;8.00;;
6828;SDS011;17930;48.592;8.868;2022-11-14T10:11:34;7.83;;;5.33;;
6828;SDS011;17930;48.592;8.868;2022-11-14T10:14:15;8.63;;;4.80;;
6828;SDS011;17930;48.592;8.868;2022-11-14T10:17:00;7.67;;;4.13;;
6828;SDS011;17930;48.592;8.868;2022-11-14T10:19:41;6.27;;;4.03;;
6828;SDS011;17930;48.592;8.868;2022-11-14T10:22:17;8.10;;;4.37;;
6828;SDS011;17930;48.592;8.868;2022-11-14T10:25:08;6.87;;;4.43;;
6828;SDS011;17930;48.592;8.868;2022-11-14T10:27:48;8.27;;;4.50;;
6828;SDS011;17930;48.592;8.868;2022-11-14T10:30:27;5.20;;;3.57;;
6828;SDS011;17930;48.592;8.868;2022-11-14T10:35:47;9.83;;;6.23;;
6828;SDS011;17930;48.592;8.868;2022-11-14T10:38:22;8.27;;;5.40;;
6828;SDS011;17930;48.592;8.868;2022-11-14T10:40:55;9.37;;;5.87;;
6828;SDS011;17930;48.592;8.868;2022-11-14T10:43:29;7.07;;;5.57;;
6828;SDS011;17930;48.592;8.868;2022-11-14T10:46:01;9.00;;;5.53;;
6828;SDS011;17930;48.592;8.868;2022-11-14T10:48:33;7.50;;;5.33;;
6828;SDS011;17930;48.592;8.868;2022-11-14T10:51:19;7.87;;;5.53;;
6828;SDS011;17930;48.592;8.868;2022-11-14T10:53:53;9.70;;;5.80;;
6828;SDS011;17930;48.592;8.868;2022-11-14T10:56:21;7.50;;;5.10;;
6828;SDS011;17930;48.592;8.868;2022-11-14T10:58:49;7.63;;;5.50;;
6828;SDS011;17930;48.592;8.868;2022-11-14T11:04:12;7.97;;;5.97;;
6828;SDS011;17930;48.592;8.868;2022-11-14T11:06:47;9.20;;;5.30;;
6828;SDS011;17930;48.592;8.868;2022-11-14T11:09:15;8.73;;;5.37;;
6828;SDS011;17930;48.592;8.868;2022-11-14T11:12:02;8.43;;;5.00;;
6828;SDS011;17930;48.592;8.868;2022-11-14T11:14:31;7.97;;;3.90;;
6828;SDS011;17930;48.592;8.868;2022-11-14T11:17:15;4.73;;;2.83;;
6828;SDS011;17930;48.592;8.868;2022-11-14T11:19:46;4.47;;;3.27;;
6828;SDS011;17930;48.592;8.868;2022-11-14T11:22:25;3.07;;;2.63;;
6828;SDS011;17930;48.592;8.868;2022-11-14T11:25:00;4.87;;;2.40;;
6828;SDS011;17930;48.592;8.868;2022-11-14T11:27:27;7.97;;;3.70;;
6828;SDS011;17930;48.592;8.868;2022-11-14T11:30:02;5.63;;;3.77;;
6828;SDS011;17930;48.592;8.868;2022-11-14T11:32:31;6.43;;;3.57;;
6828;SDS011;17930;48.592;8.868;2022-11-14T11:35:01;6.50;;;3.70;;
6828;SDS011;17930;48.592;8.868;2022-11-14T11:37:35;3.23;;;2.90;;
6828;SDS011;17930;48.592;8.868;2022-11-14T11:40:05;5.27;;;3.10;;
6828;SDS011;17930;48.592;8.868;2022-11-14T11:42:49;5.93;;;3.03;;
6828;SDS011;17930;48.592;8.868;2022-11-14T11:45:23;3.60;;;2.17;;
6828;SDS011;17930;48.592;8.868;2022-11-14T11:47:53;5.00;;;2.30;;
6828;SDS011;17930;48.592;8.868;2022-11-14T11:50:25;2.10;;;1.90;;
6828;SDS011;17930;48.592;8.868;2022-11-14T11:53:00;2.30;;;1.87;;
6828;SDS011;17930;48.592;8.868;2022-11-14T11:55:38;2.40;;;1.40;;
6828;SDS011;17930;48.592;8.868;2022-11-14T11:58:10;1.90;;;1.27;;
6828;SDS011;17930;48.592;8.868;2022-11-14T12:00:45;2.03;;;1.27;;
6828;SDS011;17930;48.592;8.868;2022-11-14T12:03:12;1.73;;;1.20;;
6828;SDS011;17930;48.592;8.868;2022-11-14T12:05:44;2.70;;;1.70;;
6828;SDS011;17930;48.592;8.868;2022-11-14T12:08:17;4.37;;;1.77;;
6828;SDS011;17930;48.592;8.868;2022-11-14T12:10:50;10.63;;;4.10;;
6828;SDS011;17930;48.592;8.868;2022-11-14T12:13:31;5.87;;;2.63;;
6828;SDS011;17930;48.592;8.868;2022-11-14T12:16:27;3.03;;;2.13;;
6828;SDS011;17930;48.592;8.868;2022-11-14T12:22:13;1.50;;;1.10;;
6828;SDS011;17930;48.592;8.868;2022-11-14T12:25:03;1.20;;;1.00;;
6828;SDS011;17930;48.592;8.868;2022-11-14T12:30:37;1.67;;;1.20;;
6828;SDS011;17930;48.592;8.868;2022-11-14T12:33:07;1.57;;;0.90;;
6828;SDS011;17930;48.592;8.868;2022-11-14T12:35:36;2.93;;;1.07;;
6828;SDS011;17930;48.592;8.868;2022-11-14T12:38:12;1.40;;;1.20;;
6828;SDS011;17930;48.592;8.868;2022-11-14T12:40:47;2.07;;;1.13;;
6828;SDS011;17930;48.592;8.868;2022-11-14T12:46:02;1.30;;;1.00;;
6828;SDS011;17930;48.592;8.868;2022-11-14T12:48:33;2.50;;;1.30;;
6828;SDS011;17930;48.592;8.868;2022-11-14T12:51:02;1.27;;;1.17;;
6828;SDS011;17930;48.592;8.868;2022-11-14T12:56:25;2.30;;;1.30;;
6828;SDS011;17930;48.592;8.868;2022-11-14T12:59:25;1.60;;;1.37;;
6828;SDS011;17930;48.592;8.868;2022-11-14T13:04:53;3.20;;;1.20;;
6828;SDS011;17930;48.592;8.868;2022-11-14T13:07:32;1.67;;;1.27;;
6828;SDS011;17930;48.592;8.868;2022-11-14T13:10:13;2.53;;;1.37;;
6828;SDS011;17930;48.592;8.868;2022-11-14T13:12:41;2.37;;;1.20;;
6828;SDS011;17930;48.592;8.868;2022-11-14T13:15:46;1.57;;;1.10;;
6828;SDS011;17930;48.592;8.868;2022-11-14T13:18:33;1.83;;;1.40;;
6828;SDS011;17930;48.592;8.868;2022-11-14T13:21:19;2.30;;;1.80;;
6828;SDS011;17930;48.592;8.868;2022-11-14T13:24:07;2.07;;;1.43;;
6828;SDS011;17930;48.592;8.868;2022-11-14T13:26:39;1.30;;;1.20;;
6828;SDS011;17930;48.592;8.868;2022-11-14T13:35:32;1.90;;;1.43;;
6828;SDS011;17930;48.592;8.868;2022-11-14T13:41:43;2.57;;;1.50;;
6828;SDS011;17930;48.592;8.868;2022-11-14T13:44:32;5.43;;;1.47;;
6828;SDS011;17930;48.592;8.868;2022-11-14T13:50:37;5.30;;;4.80;;
6828;SDS011;17930;48.592;8.868;2022-11-14T13:53:11;4.17;;;3.70;;
6828;SDS011;17930;48.592;8.868;2022-11-14T13:55:44;3.77;;;1.73;;
6828;SDS011;17930;48.592;8.868;2022-11-14T13:58:24;2.17;;;1.30;;
6828;SDS011;17930;48.592;8.868;2022-11-14T14:01:06;2.80;;;1.30;;
6828;SDS011;17930;48.592;8.868;2022-11-14T14:03:46;1.40;;;1.30;;
6828;SDS011;17930;48.592;8.868;2022-11-14T14:06:31;2.93;;;1.40;;
6828;SDS011;17930;48.592;8.868;2022-11-14T14:09:12;3.30;;;1.50;;
6828;SDS011;17930;48.592;8.868;2022-11-14T14:11:47;2.03;;;1.40;;
6828;SDS011;17930;48.592;8.868;2022-11-14T14:14:31;2.50;;;1.37;;
6828;SDS011;17930;48.592;8.868;2022-11-14T14:17:26;7.57;;;3.73;;
6828;SDS011;17930;48.592;8.868;2022-11-14T14:20:00;8.47;;;4.90;;
6828;SDS011;17930;48.592;8.868;2022-11-14T14:22:43;4.40;;;2.60;;
6828;SDS011;17930;48.592;8.868;2022-11-14T14:25:17;3.10;;;1.80;;
6828;SDS011;17930;48.592;8.868;2022-11-14T14:27:59;2.30;;;1.60;;
6828;SDS011;17930;48.592;8.868;2022-11-14T14:30:36;5.03;;;1.70;;
6828;SDS011;17930;48.592;8.868;2022-11-14T14:33:04;3.73;;;1.83;;
6828;SDS011;17930;48.592;8.868;2022-11-14T14:35:37;3.10;;;1.90;;
6828;SDS011;17930;48.592;8.868;2022-11-14T14:38:09;3.70;;;2.13;;
6828;SDS011;17930;48.592;8.868;2022-11-14T14:40:38;4.70;;;2.40;;
6828;SDS011;17930;48.592;8.868;2022-11-14T14:43:12;8.77;;;3.10;;
6828;SDS011;17930;48.592;8.868;2022-11-14T14:45:50;6.20;;;2.53;;
6828;SDS011;17930;48.592;8.868;2022-11-14T14:48:21;3.50;;;2.30;;
6828;SDS011;17930;48.592;8.868;2022-11-14T14:50:51;2.67;;;1.57;;
6828;SDS011;17930;48.592;8.868;2022-11-14T14:53:19;2.07;;;1.60;;
6828;SDS011;17930;48.592;8.868;2022-11-14T14:55:51;3.03;;;1.87;;
6828;SDS011;17930;48.592;8.868;2022-11-14T14:58:24;3.70;;;1.80;;
6828;SDS011;17930;48.592;8.868;2022-11-14T15:00:56;3.00;;;1.90;;
6828;SDS011;17930;48.592;8.868;2022-11-14T15:03:26;2.17;;;1.80;;
6828;SDS011;17930;48.592;8.868;2022-11-14T15:05:57;2.50;;;1.50;;
6828;SDS011;17930;48.592;8.868;2022-11-14T15:08:25;3.83;;;1.77;;
6828;SDS011;17930;48.592;8.868;2022-11-14T15:10:58;3.77;;;1.87;;
6828;SDS011;17930;48.592;8.868;2022-11-14T15:13:26;2.80;;;1.93;;
6828;SDS011;17930;48.592;8.868;2022-11-14T15:16:04;3.30;;;2.00;;
6828;SDS011;17930;48.592;8.868;2022-11-14T15:18:33;2.57;;;1.80;;
6828;SDS011;17930;48.592;8.868;2022-11-14T15:21:22;2.50;;;1.83;;
6828;SDS011;17930;48.592;8.868;2022-11-14T15:23:58;4.90;;;2.07;;
6828;SDS011;17930;48.592;8.868;2022-11-14T15:26:26;2.53;;;1.93;;
6828;SDS011;17930;48.592;8.868;2022-11-14T15:29:03;4.67;;;2.17;;
6828;SDS011;17930;48.592;8.868;2022-11-14T15:31:32;2.30;;;2.10;;
6828;SDS011;17930;48.592;8.868;2022-11-14T15:34:02;4.10;;;2.00;;
6828;SDS011;17930;48.592;8.868;2022-11-14T15:36:31;2.10;;;1.60;;
6828;SDS011;17930;48.592;8.868;2022-11-14T15:38:59;4.47;;;2.67;;
6828;SDS011;17930;48.592;8.868;2022-11-14T15:41:29;3.40;;;1.93;;
6828;SDS011;17930;48.592;8.868;2022-11-14T15:43:56;3.87;;;2.00;;
6828;SDS011;17930;48.592;8.868;2022-11-14T15:46:41;5.57;;;2.83;;
6828;SDS011;17930;48.592;8.868;2022-11-14T15:51:56;5.20;;;2.93;;